Airfield :
LOGIN :

Register | Disclaimer

   EN    FR    IT 

 










Legend :    VFR   Marginal VFR   IFR   Intensive IFR   Very Intensive IFR
Visi :
Ceiling :
>= 8 km
>= 3000ft
5 to 8 km
1000 to 3000 ft
1500m to 5 km
500 to 1000 ft
800 to 1500m
200 to 500 ft
< 800m
< 200 ft
Symbols :   Thunderstorms  Fog  Heavy snow  Heavy precipitations  Wind > 20 kt
SIGMETs :     Misc.  Thunderstorms  Icing  Turbulence  Mountain Waves  Volcanic Ashes







- Airport Elevation : 1247 ft
- IATA code : PRG


LKPR - Praha Ruzyne

CURRENT METAR :
  • 241130Z 35008KT 310V020 9999 FEW046 19/09 Q1015 NOSIG

EXPIRED METARs :
  • 241100Z 35006KT 270V020 9999 FEW043 18/08 Q1015 NOSIG
  • 241030Z 35006KT 300V030 9999 FEW043 18/07 Q1015 NOSIG
  • 241000Z VRB03KT 9999 FEW043 17/08 Q1016 NOSIG
  • 240930Z VRB03KT 9999 FEW043 17/08 Q1016 NOSIG
  • 240900Z VRB02KT 9999 FEW043 17/06 Q1016 NOSIG

TAF TAF LKPR
Valid from the 24 at 12:00 until the 25 at 18:00 UTC


241100Z 2412/2518 36008KT CAVOK
BECMG 2418/2420 VRB02KT
TEMPO 2513/2516 6000 SHRA SCT045TCU
PROB30
TEMPO 2513/2516 34014G28KT 3000 TSRA SCT040CB
No reported NOTAMs for that airfield.



MET'MAP, your aeronautical weather chart ! - Copyright ORBIFLY December 2007 - Disclaimer

ORBIFLY MET'MAP TEAM :

Programming & Development : Alexandra Zaïnal
Concept & Development : Baudouin d'Aumeries
Co-Development & Prog : Marc-Olivier Méhu
Technical & hardware support : Manuel Goepfert

Contact : metmap@orbifly.com




SOURCES & CREDITS :

   NOAA